sensor_id;sensor_type;location;lat;lon;timestamp;temperature;humidity
19214;DHT22;9741;51.020;5.304;2023-04-02T00:01:23;9.70;71.60
19214;DHT22;9741;51.020;5.304;2023-04-02T00:04:14;9.70;71.60
19214;DHT22;9741;51.020;5.304;2023-04-02T00:06:48;9.70;71.50
19214;DHT22;9741;51.020;5.304;2023-04-02T00:09:37;9.60;71.40
19214;DHT22;9741;51.020;5.304;2023-04-02T00:12:14;9.60;71.40
19214;DHT22;9741;51.020;5.304;2023-04-02T00:14:52;9.50;71.40
19214;DHT22;9741;51.020;5.304;2023-04-02T00:17:22;9.50;71.40
19214;DHT22;9741;51.020;5.304;2023-04-02T00:19:53;9.50;71.40
19214;DHT22;9741;51.020;5.304;2023-04-02T00:22:25;9.50;71.40
19214;DHT22;9741;51.020;5.304;2023-04-02T00:24:56;9.50;71.40
19214;DHT22;9741;51.020;5.304;2023-04-02T00:27:25;9.40;71.30
19214;DHT22;9741;51.020;5.304;2023-04-02T00:29:54;9.40;71.30
19214;DHT22;9741;51.020;5.304;2023-04-02T00:32:24;9.40;71.30
19214;DHT22;9741;51.020;5.304;2023-04-02T00:34:51;9.30;71.20
19214;DHT22;9741;51.020;5.304;2023-04-02T00:37:21;9.30;71.20
19214;DHT22;9741;51.020;5.304;2023-04-02T00:39:57;9.30;71.30
19214;DHT22;9741;51.020;5.304;2023-04-02T00:42:28;9.30;71.20
19214;DHT22;9741;51.020;5.304;2023-04-02T00:44:56;9.30;71.30
19214;DHT22;9741;51.020;5.304;2023-04-02T00:47:25;9.30;71.20
19214;DHT22;9741;51.020;5.304;2023-04-02T00:49:58;9.30;71.30
19214;DHT22;9741;51.020;5.304;2023-04-02T00:52:28;9.30;71.30
19214;DHT22;9741;51.020;5.304;2023-04-02T00:55:02;9.20;71.20
19214;DHT22;9741;51.020;5.304;2023-04-02T00:57:31;9.20;71.20
19214;DHT22;9741;51.020;5.304;2023-04-02T01:00:00;9.20;71.10
19214;DHT22;9741;51.020;5.304;2023-04-02T01:02:33;9.20;71.10
19214;DHT22;9741;51.020;5.304;2023-04-02T01:05:19;9.20;71.20
19214;DHT22;9741;51.020;5.304;2023-04-02T01:07:56;9.10;71.00
19214;DHT22;9741;51.020;5.304;2023-04-02T01:10:43;9.10;71.10
19214;DHT22;9741;51.020;5.304;2023-04-02T01:13:19;9.10;71.10
19214;DHT22;9741;51.020;5.304;2023-04-02T01:15:53;9.00;71.10
19214;DHT22;9741;51.020;5.304;2023-04-02T01:18:36;9.00;71.10
19214;DHT22;9741;51.020;5.304;2023-04-02T01:21:21;9.00;71.20
19214;DHT22;9741;51.020;5.304;2023-04-02T01:24:01;9.00;71.20
19214;DHT22;9741;51.020;5.304;2023-04-02T01:29:28;8.90;71.10
19214;DHT22;9741;51.020;5.304;2023-04-02T01:31:59;8.90;71.10
19214;DHT22;9741;51.020;5.304;2023-04-02T01:34:30;8.90;71.10
19214;DHT22;9741;51.020;5.304;2023-04-02T01:37:12;8.90;71.10
19214;DHT22;9741;51.020;5.304;2023-04-02T01:39:51;8.90;71.10
19214;DHT22;9741;51.020;5.304;2023-04-02T01:42:23;8.90;71.00
19214;DHT22;9741;51.020;5.304;2023-04-02T01:44:58;8.90;71.00
19214;DHT22;9741;51.020;5.304;2023-04-02T01:47:27;8.90;71.00
19214;DHT22;9741;51.020;5.304;2023-04-02T01:49:57;8.90;70.90
19214;DHT22;9741;51.020;5.304;2023-04-02T01:52:35;8.80;70.80
19214;DHT22;9741;51.020;5.304;2023-04-02T01:55:03;8.90;70.90
19214;DHT22;9741;51.020;5.304;2023-04-02T01:57:30;8.90;70.90
19214;DHT22;9741;51.020;5.304;2023-04-02T02:00:01;8.90;70.80
19214;DHT22;9741;51.020;5.304;2023-04-02T02:02:33;8.80;70.70
19214;DHT22;9741;51.020;5.304;2023-04-02T02:05:00;8.90;70.70
19214;DHT22;9741;51.020;5.304;2023-04-02T02:07:28;8.80;70.50
19214;DHT22;9741;51.020;5.304;2023-04-02T02:09:55;8.80;70.60
19214;DHT22;9741;51.020;5.304;2023-04-02T02:12:22;8.80;70.60
19214;DHT22;9741;51.020;5.304;2023-04-02T02:14:50;8.80;70.50
19214;DHT22;9741;51.020;5.304;2023-04-02T02:17:23;8.80;70.50
19214;DHT22;9741;51.020;5.304;2023-04-02T02:19:55;8.80;70.50
19214;DHT22;9741;51.020;5.304;2023-04-02T02:22:27;8.80;70.50
19214;DHT22;9741;51.020;5.304;2023-04-02T02:24:56;8.80;70.50
19214;DHT22;9741;51.020;5.304;2023-04-02T02:27:49;8.80;70.40
19214;DHT22;9741;51.020;5.304;2023-04-02T02:30:22;8.80;70.30
19214;DHT22;9741;51.020;5.304;2023-04-02T02:32:56;8.80;70.30
19214;DHT22;9741;51.020;5.304;2023-04-02T02:35:28;8.80;70.40
19214;DHT22;9741;51.020;5.304;2023-04-02T02:38:01;8.70;70.40
19214;DHT22;9741;51.020;5.304;2023-04-02T02:40:38;8.80;70.50
19214;DHT22;9741;51.020;5.304;2023-04-02T02:43:11;8.70;70.50
19214;DHT22;9741;51.020;5.304;2023-04-02T02:45:40;8.70;70.50
19214;DHT22;9741;51.020;5.304;2023-04-02T02:48:12;8.70;70.50
19214;DHT22;9741;51.020;5.304;2023-04-02T02:50:41;8.80;70.50
19214;DHT22;9741;51.020;5.304;2023-04-02T02:53:16;8.70;70.40
19214;DHT22;9741;51.020;5.304;2023-04-02T02:55:46;8.70;70.40
19214;DHT22;9741;51.020;5.304;2023-04-02T02:58:18;8.70;70.40
19214;DHT22;9741;51.020;5.304;2023-04-02T03:00:48;8.70;70.40
19214;DHT22;9741;51.020;5.304;2023-04-02T03:03:19;8.60;70.30
19214;DHT22;9741;51.020;5.304;2023-04-02T03:05:50;8.70;70.50
19214;DHT22;9741;51.020;5.304;2023-04-02T03:08:21;8.60;70.40
19214;DHT22;9741;51.020;5.304;2023-04-02T03:10:55;8.60;70.40
19214;DHT22;9741;51.020;5.304;2023-04-02T03:13:27;8.60;70.40
19214;DHT22;9741;51.020;5.304;2023-04-02T03:16:02;8.60;70.30
19214;DHT22;9741;51.020;5.304;2023-04-02T03:18:37;8.60;70.30
19214;DHT22;9741;51.020;5.304;2023-04-02T03:21:13;8.60;70.30
19214;DHT22;9741;51.020;5.304;2023-04-02T03:23:44;8.50;70.30
19214;DHT22;9741;51.020;5.304;2023-04-02T03:26:14;8.50;70.20
19214;DHT22;9741;51.020;5.304;2023-04-02T03:28:46;8.50;70.20
19214;DHT22;9741;51.020;5.304;2023-04-02T03:31:21;8.50;70.20
19214;DHT22;9741;51.020;5.304;2023-04-02T03:33:53;8.50;70.20
19214;DHT22;9741;51.020;5.304;2023-04-02T03:36:25;8.40;70.10
19214;DHT22;9741;51.020;5.304;2023-04-02T03:39:00;8.40;70.10
19214;DHT22;9741;51.020;5.304;2023-04-02T03:41:33;8.40;70.10
19214;DHT22;9741;51.020;5.304;2023-04-02T03:44:11;8.50;70.10
19214;DHT22;9741;51.020;5.304;2023-04-02T03:46:44;8.40;70.10
19214;DHT22;9741;51.020;5.304;2023-04-02T03:49:17;8.40;70.10
19214;DHT22;9741;51.020;5.304;2023-04-02T03:51:50;8.50;70.10
19214;DHT22;9741;51.020;5.304;2023-04-02T03:54:18;8.40;69.90
19214;DHT22;9741;51.020;5.304;2023-04-02T03:56:46;8.40;69.90
19214;DHT22;9741;51.020;5.304;2023-04-02T03:59:18;8.30;69.80
19214;DHT22;9741;51.020;5.304;2023-04-02T04:01:51;8.30;69.80
19214;DHT22;9741;51.020;5.304;2023-04-02T04:04:21;8.30;69.80
19214;DHT22;9741;51.020;5.304;2023-04-02T04:06:51;8.30;69.70
19214;DHT22;9741;51.020;5.304;2023-04-02T04:09:24;8.30;69.70
19214;DHT22;9741;51.020;5.304;2023-04-02T04:11:54;8.20;69.60
19214;DHT22;9741;51.020;5.304;2023-04-02T04:14:28;8.20;69.60
19214;DHT22;9741;51.020;5.304;2023-04-02T04:17:01;8.20;69.60
19214;DHT22;9741;51.020;5.304;2023-04-02T04:19:38;8.10;69.50
19214;DHT22;9741;51.020;5.304;2023-04-02T04:22:13;8.10;69.50
19214;DHT22;9741;51.020;5.304;2023-04-02T04:24:42;8.10;69.50
19214;DHT22;9741;51.020;5.304;2023-04-02T04:27:18;8.00;69.50
19214;DHT22;9741;51.020;5.304;2023-04-02T04:29:52;8.00;69.40
19214;DHT22;9741;51.020;5.304;2023-04-02T04:32:26;8.00;69.40
19214;DHT22;9741;51.020;5.304;2023-04-02T04:35:03;8.00;69.90
19214;DHT22;9741;51.020;5.304;2023-04-02T04:37:35;8.00;69.40
19214;DHT22;9741;51.020;5.304;2023-04-02T04:40:09;7.90;69.30
19214;DHT22;9741;51.020;5.304;2023-04-02T04:42:40;7.90;69.30
19214;DHT22;9741;51.020;5.304;2023-04-02T04:45:22;7.90;69.30
19214;DHT22;9741;51.020;5.304;2023-04-02T04:47:55;7.90;69.30
19214;DHT22;9741;51.020;5.304;2023-04-02T04:50:29;7.90;69.30
19214;DHT22;9741;51.020;5.304;2023-04-02T04:53:04;7.90;69.30
19214;DHT22;9741;51.020;5.304;2023-04-02T04:55:36;7.90;69.20
19214;DHT22;9741;51.020;5.304;2023-04-02T04:58:13;7.80;69.10
19214;DHT22;9741;51.020;5.304;2023-04-02T05:00:51;7.80;69.10
19214;DHT22;9741;51.020;5.304;2023-04-02T05:03:27;7.90;69.30
19214;DHT22;9741;51.020;5.304;2023-04-02T05:06:05;7.80;69.10
19214;DHT22;9741;51.020;5.304;2023-04-02T05:08:37;7.80;69.10
19214;DHT22;9741;51.020;5.304;2023-04-02T05:11:12;7.80;69.20
19214;DHT22;9741;51.020;5.304;2023-04-02T05:13:46;7.80;69.10
19214;DHT22;9741;51.020;5.304;2023-04-02T05:16:16;7.80;69.10
19214;DHT22;9741;51.020;5.304;2023-04-02T05:18:52;7.80;69.10
19214;DHT22;9741;51.020;5.304;2023-04-02T05:21:26;7.80;69.20
19214;DHT22;9741;51.020;5.304;2023-04-02T05:24:04;7.80;69.20
19214;DHT22;9741;51.020;5.304;2023-04-02T05:26:37;7.80;69.10
19214;DHT22;9741;51.020;5.304;2023-04-02T05:29:10;7.80;69.10
19214;DHT22;9741;51.020;5.304;2023-04-02T05:31:42;7.80;69.20
19214;DHT22;9741;51.020;5.304;2023-04-02T05:34:11;7.80;69.10
19214;DHT22;9741;51.020;5.304;2023-04-02T05:36:45;7.70;69.10
19214;DHT22;9741;51.020;5.304;2023-04-02T05:39:20;7.70;69.00
19214;DHT22;9741;51.020;5.304;2023-04-02T05:41:58;7.80;69.10
19214;DHT22;9741;51.020;5.304;2023-04-02T05:44:28;7.70;68.90
19214;DHT22;9741;51.020;5.304;2023-04-02T05:46:57;7.70;68.90
19214;DHT22;9741;51.020;5.304;2023-04-02T05:49:30;7.60;68.90
19214;DHT22;9741;51.020;5.304;2023-04-02T05:52:02;7.60;68.90
19214;DHT22;9741;51.020;5.304;2023-04-02T05:54:38;7.60;68.90
19214;DHT22;9741;51.020;5.304;2023-04-02T05:57:13;7.60;68.90
19214;DHT22;9741;51.020;5.304;2023-04-02T05:59:45;7.60;68.90
19214;DHT22;9741;51.020;5.304;2023-04-02T06:02:18;7.60;68.90
19214;DHT22;9741;51.020;5.304;2023-04-02T06:04:52;7.70;69.00
19214;DHT22;9741;51.020;5.304;2023-04-02T06:07:26;7.70;69.00
19214;DHT22;9741;51.020;5.304;2023-04-02T06:10:02;7.70;68.90
19214;DHT22;9741;51.020;5.304;2023-04-02T06:12:36;7.70;68.90
19214;DHT22;9741;51.020;5.304;2023-04-02T06:15:05;7.70;68.80
19214;DHT22;9741;51.020;5.304;2023-04-02T06:17:43;7.70;68.70
19214;DHT22;9741;51.020;5.304;2023-04-02T06:20:14;7.70;68.70
19214;DHT22;9741;51.020;5.304;2023-04-02T06:22:45;7.60;68.60
19214;DHT22;9741;51.020;5.304;2023-04-02T06:25:18;7.60;68.50
19214;DHT22;9741;51.020;5.304;2023-04-02T06:27:48;7.60;68.60
19214;DHT22;9741;51.020;5.304;2023-04-02T06:30:19;7.60;68.50
19214;DHT22;9741;51.020;5.304;2023-04-02T06:32:48;7.60;68.60
19214;DHT22;9741;51.020;5.304;2023-04-02T06:35:16;7.50;68.50
19214;DHT22;9741;51.020;5.304;2023-04-02T06:37:46;7.50;68.50
19214;DHT22;9741;51.020;5.304;2023-04-02T06:40:26;7.50;68.50
19214;DHT22;9741;51.020;5.304;2023-04-02T06:42:56;7.50;68.50
19214;DHT22;9741;51.020;5.304;2023-04-02T06:45:28;7.50;68.50
19214;DHT22;9741;51.020;5.304;2023-04-02T06:47:58;7.50;68.60
19214;DHT22;9741;51.020;5.304;2023-04-02T06:50:28;7.50;68.60
19214;DHT22;9741;51.020;5.304;2023-04-02T06:53:01;7.50;69.00
19214;DHT22;9741;51.020;5.304;2023-04-02T06:55:33;7.50;68.40
19214;DHT22;9741;51.020;5.304;2023-04-02T06:58:03;7.50;68.40
19214;DHT22;9741;51.020;5.304;2023-04-02T07:00:34;7.50;68.40
19214;DHT22;9741;51.020;5.304;2023-04-02T07:03:05;7.50;68.40
19214;DHT22;9741;51.020;5.304;2023-04-02T07:05:33;7.50;68.30
19214;DHT22;9741;51.020;5.304;2023-04-02T07:08:02;7.50;68.20
19214;DHT22;9741;51.020;5.304;2023-04-02T07:10:29;7.50;68.20
19214;DHT22;9741;51.020;5.304;2023-04-02T07:12:56;7.50;68.10
19214;DHT22;9741;51.020;5.304;2023-04-02T07:15:23;7.40;68.00
19214;DHT22;9741;51.020;5.304;2023-04-02T07:17:50;7.40;68.00
19214;DHT22;9741;51.020;5.304;2023-04-02T07:20:25;7.40;68.00
19214;DHT22;9741;51.020;5.304;2023-04-02T07:22:52;7.40;68.10
19214;DHT22;9741;51.020;5.304;2023-04-02T07:25:21;7.40;68.00
19214;DHT22;9741;51.020;5.304;2023-04-02T07:27:49;7.30;67.90
19214;DHT22;9741;51.020;5.304;2023-04-02T07:30:17;7.30;67.90
19214;DHT22;9741;51.020;5.304;2023-04-02T07:32:44;7.30;67.90
19214;DHT22;9741;51.020;5.304;2023-04-02T07:35:11;7.40;68.00
19214;DHT22;9741;51.020;5.304;2023-04-02T07:37:39;7.40;67.90
19214;DHT22;9741;51.020;5.304;2023-04-02T07:40:09;7.40;67.80
19214;DHT22;9741;51.020;5.304;2023-04-02T07:42:42;7.50;67.80
19214;DHT22;9741;51.020;5.304;2023-04-02T07:45:10;7.50;67.70
19214;DHT22;9741;51.020;5.304;2023-04-02T07:47:37;7.50;67.70
19214;DHT22;9741;51.020;5.304;2023-04-02T07:50:05;7.50;67.70
19214;DHT22;9741;51.020;5.304;2023-04-02T07:52:33;7.50;67.70
19214;DHT22;9741;51.020;5.304;2023-04-02T07:55:00;7.60;67.80
19214;DHT22;9741;51.020;5.304;2023-04-02T07:57:28;7.60;67.70
19214;DHT22;9741;51.020;5.304;2023-04-02T07:59:57;7.60;67.60
19214;DHT22;9741;51.020;5.304;2023-04-02T08:02:24;7.70;67.60
19214;DHT22;9741;51.020;5.304;2023-04-02T08:04:51;7.70;67.60
19214;DHT22;9741;51.020;5.304;2023-04-02T08:07:20;7.70;67.40
19214;DHT22;9741;51.020;5.304;2023-04-02T08:09:48;7.70;67.40
19214;DHT22;9741;51.020;5.304;2023-04-02T08:12:15;7.70;67.30
19214;DHT22;9741;51.020;5.304;2023-04-02T08:14:42;7.70;67.20
19214;DHT22;9741;51.020;5.304;2023-04-02T08:17:12;7.70;67.10
19214;DHT22;9741;51.020;5.304;2023-04-02T08:19:39;7.60;67.00
19214;DHT22;9741;51.020;5.304;2023-04-02T08:22:06;7.70;67.20
19214;DHT22;9741;51.020;5.304;2023-04-02T08:24:34;7.70;67.20
19214;DHT22;9741;51.020;5.304;2023-04-02T08:27:01;7.70;67.10
19214;DHT22;9741;51.020;5.304;2023-04-02T08:29:29;7.70;67.10
19214;DHT22;9741;51.020;5.304;2023-04-02T08:31:57;7.70;67.00
19214;DHT22;9741;51.020;5.304;2023-04-02T08:34:26;7.70;67.00
19214;DHT22;9741;51.020;5.304;2023-04-02T08:36:55;7.80;67.10
19214;DHT22;9741;51.020;5.304;2023-04-02T08:39:24;7.80;67.00
19214;DHT22;9741;51.020;5.304;2023-04-02T08:42:02;7.80;66.80
19214;DHT22;9741;51.020;5.304;2023-04-02T08:44:41;7.80;66.90
19214;DHT22;9741;51.020;5.304;2023-04-02T08:47:11;7.90;66.70
19214;DHT22;9741;51.020;5.304;2023-04-02T08:49:43;7.90;66.50
19214;DHT22;9741;51.020;5.304;2023-04-02T08:52:21;7.80;66.40
19214;DHT22;9741;51.020;5.304;2023-04-02T08:54:49;7.90;66.30
19214;DHT22;9741;51.020;5.304;2023-04-02T08:57:26;7.90;66.20
19214;DHT22;9741;51.020;5.304;2023-04-02T08:59:59;7.90;66.00
19214;DHT22;9741;51.020;5.304;2023-04-02T09:02:36;8.00;66.10
19214;DHT22;9741;51.020;5.304;2023-04-02T09:05:14;8.00;65.90
19214;DHT22;9741;51.020;5.304;2023-04-02T09:07:43;8.10;65.90
19214;DHT22;9741;51.020;5.304;2023-04-02T09:10:13;8.20;65.70
19214;DHT22;9741;51.020;5.304;2023-04-02T09:12:42;8.20;65.40
19214;DHT22;9741;51.020;5.304;2023-04-02T09:15:28;8.20;65.20
19214;DHT22;9741;51.020;5.304;2023-04-02T09:18:04;8.30;65.20
19214;DHT22;9741;51.020;5.304;2023-04-02T09:20:33;8.30;65.10
19214;DHT22;9741;51.020;5.304;2023-04-02T09:23:01;8.30;64.80
19214;DHT22;9741;51.020;5.304;2023-04-02T09:25:29;8.30;64.60
19214;DHT22;9741;51.020;5.304;2023-04-02T09:28:00;8.30;64.50
19214;DHT22;9741;51.020;5.304;2023-04-02T09:30:36;8.30;64.40
19214;DHT22;9741;51.020;5.304;2023-04-02T09:33:07;8.30;64.30
19214;DHT22;9741;51.020;5.304;2023-04-02T09:35:36;8.30;64.10
19214;DHT22;9741;51.020;5.304;2023-04-02T09:38:19;8.20;64.00
19214;DHT22;9741;51.020;5.304;2023-04-02T09:40:54;8.10;63.80
19214;DHT22;9741;51.020;5.304;2023-04-02T09:43:24;8.10;63.90
19214;DHT22;9741;51.020;5.304;2023-04-02T09:45:56;8.00;63.90
19214;DHT22;9741;51.020;5.304;2023-04-02T09:48:26;8.10;64.00
19214;DHT22;9741;51.020;5.304;2023-04-02T09:51:14;8.00;63.90
19214;DHT22;9741;51.020;5.304;2023-04-02T09:53:42;8.10;64.10
19214;DHT22;9741;51.020;5.304;2023-04-02T09:56:21;8.10;64.00
19214;DHT22;9741;51.020;5.304;2023-04-02T09:59:02;8.20;63.80
19214;DHT22;9741;51.020;5.304;2023-04-02T10:01:31;8.20;63.80
19214;DHT22;9741;51.020;5.304;2023-04-02T10:04:00;8.30;64.00
19214;DHT22;9741;51.020;5.304;2023-04-02T10:06:30;8.40;63.80
19214;DHT22;9741;51.020;5.304;2023-04-02T10:09:18;8.50;63.70
19214;DHT22;9741;51.020;5.304;2023-04-02T10:11:46;8.50;63.50
19214;DHT22;9741;51.020;5.304;2023-04-02T10:14:20;8.40;63.10
19214;DHT22;9741;51.020;5.304;2023-04-02T10:16:51;8.50;63.00
19214;DHT22;9741;51.020;5.304;2023-04-02T10:19:25;8.50;62.80
19214;DHT22;9741;51.020;5.304;2023-04-02T10:21:57;8.50;62.70
19214;DHT22;9741;51.020;5.304;2023-04-02T10:24:27;8.50;62.50
19214;DHT22;9741;51.020;5.304;2023-04-02T10:27:06;8.40;62.20
19214;DHT22;9741;51.020;5.304;2023-04-02T10:30:12;8.30;62.00
19214;DHT22;9741;51.020;5.304;2023-04-02T10:32:48;8.30;62.00
19214;DHT22;9741;51.020;5.304;2023-04-02T10:35:29;8.30;62.20
19214;DHT22;9741;51.020;5.304;2023-04-02T10:40:49;8.30;62.10
19214;DHT22;9741;51.020;5.304;2023-04-02T10:46:29;8.30;61.80
19214;DHT22;9741;51.020;5.304;2023-04-02T10:49:06;8.30;61.80
19214;DHT22;9741;51.020;5.304;2023-04-02T10:51:41;8.30;61.80
19214;DHT22;9741;51.020;5.304;2023-04-02T10:54:26;8.30;61.70
19214;DHT22;9741;51.020;5.304;2023-04-02T10:57:01;8.30;61.70
19214;DHT22;9741;51.020;5.304;2023-04-02T10:59:32;8.40;61.60
19214;DHT22;9741;51.020;5.304;2023-04-02T11:04:46;8.50;61.30
19214;DHT22;9741;51.020;5.304;2023-04-02T11:07:16;8.50;61.20
19214;DHT22;9741;51.020;5.304;2023-04-02T11:09:48;8.60;61.30
19214;DHT22;9741;51.020;5.304;2023-04-02T11:12:20;8.60;61.10
19214;DHT22;9741;51.020;5.304;2023-04-02T11:14:49;8.70;61.00
19214;DHT22;9741;51.020;5.304;2023-04-02T11:17:18;8.60;60.80
19214;DHT22;9741;51.020;5.304;2023-04-02T11:19:46;8.70;60.90
19214;DHT22;9741;51.020;5.304;2023-04-02T11:22:14;8.70;60.80
19214;DHT22;9741;51.020;5.304;2023-04-02T11:24:43;8.70;60.70
19214;DHT22;9741;51.020;5.304;2023-04-02T11:27:19;8.70;60.60
19214;DHT22;9741;51.020;5.304;2023-04-02T11:29:49;8.80;60.70
19214;DHT22;9741;51.020;5.304;2023-04-02T11:35:26;8.90;60.70
19214;DHT22;9741;51.020;5.304;2023-04-02T11:38:02;9.00;60.80
19214;DHT22;9741;51.020;5.304;2023-04-02T11:40:46;9.00;60.70
19214;DHT22;9741;51.020;5.304;2023-04-02T11:46:44;9.10;60.40
19214;DHT22;9741;51.020;5.304;2023-04-02T11:49:37;9.10;60.20
19214;DHT22;9741;51.020;5.304;2023-04-02T11:52:21;9.20;60.20
19214;DHT22;9741;51.020;5.304;2023-04-02T11:58:18;9.20;60.00
19214;DHT22;9741;51.020;5.304;2023-04-02T12:04:22;9.20;60.00
19214;DHT22;9741;51.020;5.304;2023-04-02T12:07:04;9.30;60.00
19214;DHT22;9741;51.020;5.304;2023-04-02T12:09:43;9.20;59.70
19214;DHT22;9741;51.020;5.304;2023-04-02T12:12:23;9.20;59.60
19214;DHT22;9741;51.020;5.304;2023-04-02T12:14:52;9.20;59.50
19214;DHT22;9741;51.020;5.304;2023-04-02T12:17:31;9.20;59.40
19214;DHT22;9741;51.020;5.304;2023-04-02T12:20:12;9.20;59.20
19214;DHT22;9741;51.020;5.304;2023-04-02T12:22:47;9.20;59.20
19214;DHT22;9741;51.020;5.304;2023-04-02T12:25:24;9.20;59.10
19214;DHT22;9741;51.020;5.304;2023-04-02T12:28:14;9.20;59.10
19214;DHT22;9741;51.020;5.304;2023-04-02T12:30:44;9.20;59.10
19214;DHT22;9741;51.020;5.304;2023-04-02T12:33:22;9.30;59.30
19214;DHT22;9741;51.020;5.304;2023-04-02T12:35:56;9.30;58.90
19214;DHT22;9741;51.020;5.304;2023-04-02T12:38:25;9.20;58.60
19214;DHT22;9741;51.020;5.304;2023-04-02T12:40:54;9.20;58.60
19214;DHT22;9741;51.020;5.304;2023-04-02T12:43:23;9.10;58.60
19214;DHT22;9741;51.020;5.304;2023-04-02T12:45:51;9.20;58.80
19214;DHT22;9741;51.020;5.304;2023-04-02T12:48:19;9.20;58.70
19214;DHT22;9741;51.020;5.304;2023-04-02T12:50:47;9.20;58.60
19214;DHT22;9741;51.020;5.304;2023-04-02T12:53:20;9.20;58.50
19214;DHT22;9741;51.020;5.304;2023-04-02T12:55:49;9.20;58.60
19214;DHT22;9741;51.020;5.304;2023-04-02T12:58:25;9.20;58.60
19214;DHT22;9741;51.020;5.304;2023-04-02T13:01:08;9.30;58.70
19214;DHT22;9741;51.020;5.304;2023-04-02T13:03:36;9.40;58.80
19214;DHT22;9741;51.020;5.304;2023-04-02T13:06:19;9.50;58.70
19214;DHT22;9741;51.020;5.304;2023-04-02T13:08:49;9.50;58.70
19214;DHT22;9741;51.020;5.304;2023-04-02T13:11:17;9.60;58.60
19214;DHT22;9741;51.020;5.304;2023-04-02T13:13:45;9.70;58.40
19214;DHT22;9741;51.020;5.304;2023-04-02T13:16:28;9.70;58.20
19214;DHT22;9741;51.020;5.304;2023-04-02T13:19:21;9.60;58.00
19214;DHT22;9741;51.020;5.304;2023-04-02T13:21:48;9.50;57.80
19214;DHT22;9741;51.020;5.304;2023-04-02T13:24:19;9.40;57.60
19214;DHT22;9741;51.020;5.304;2023-04-02T13:26:47;9.40;57.60
19214;DHT22;9741;51.020;5.304;2023-04-02T13:29:24;9.40;57.70
19214;DHT22;9741;51.020;5.304;2023-04-02T13:31:53;9.50;57.90
19214;DHT22;9741;51.020;5.304;2023-04-02T13:34:20;9.60;57.90
19214;DHT22;9741;51.020;5.304;2023-04-02T13:36:47;9.60;57.80
19214;DHT22;9741;51.020;5.304;2023-04-02T13:39:15;9.70;57.80
19214;DHT22;9741;51.020;5.304;2023-04-02T13:41:47;9.70;57.80
19214;DHT22;9741;51.020;5.304;2023-04-02T13:44:20;9.80;57.70
19214;DHT22;9741;51.020;5.304;2023-04-02T13:46:48;9.80;57.50
19214;DHT22;9741;51.020;5.304;2023-04-02T13:49:15;9.80;57.40
19214;DHT22;9741;51.020;5.304;2023-04-02T13:51:44;9.90;57.40
19214;DHT22;9741;51.020;5.304;2023-04-02T13:54:17;9.90;57.40
19214;DHT22;9741;51.020;5.304;2023-04-02T13:56:47;10.00;56.50
19214;DHT22;9741;51.020;5.304;2023-04-02T13:59:15;10.10;56.40
19214;DHT22;9741;51.020;5.304;2023-04-02T14:01:43;10.00;56.70
19214;DHT22;9741;51.020;5.304;2023-04-02T14:04:18;10.00;55.90
19214;DHT22;9741;51.020;5.304;2023-04-02T14:07:09;10.00;55.90
19214;DHT22;9741;51.020;5.304;2023-04-02T14:09:46;9.90;56.80
19214;DHT22;9741;51.020;5.304;2023-04-02T14:12:25;9.90;56.80
19214;DHT22;9741;51.020;5.304;2023-04-02T14:15:16;9.90;56.60
19214;DHT22;9741;51.020;5.304;2023-04-02T14:17:55;9.80;56.50
19214;DHT22;9741;51.020;5.304;2023-04-02T14:20:33;9.80;56.50
19214;DHT22;9741;51.020;5.304;2023-04-02T14:23:17;9.80;56.70
19214;DHT22;9741;51.020;5.304;2023-04-02T14:25:56;9.80;56.70
19214;DHT22;9741;51.020;5.304;2023-04-02T14:28:31;9.80;56.60
19214;DHT22;9741;51.020;5.304;2023-04-02T14:31:09;9.70;56.50
19214;DHT22;9741;51.020;5.304;2023-04-02T14:33:49;9.70;56.60
19214;DHT22;9741;51.020;5.304;2023-04-02T14:36:22;9.70;56.70
19214;DHT22;9741;51.020;5.304;2023-04-02T14:38:55;9.70;56.80
19214;DHT22;9741;51.020;5.304;2023-04-02T14:41:28;9.80;56.80
19214;DHT22;9741;51.020;5.304;2023-04-02T14:44:01;9.80;56.50
19214;DHT22;9741;51.020;5.304;2023-04-02T14:46:30;9.80;56.50
19214;DHT22;9741;51.020;5.304;2023-04-02T14:49:02;9.70;56.20
19214;DHT22;9741;51.020;5.304;2023-04-02T14:51:34;9.70;56.30
19214;DHT22;9741;51.020;5.304;2023-04-02T14:54:08;9.70;56.20
19214;DHT22;9741;51.020;5.304;2023-04-02T14:56:43;9.70;56.20
19214;DHT22;9741;51.020;5.304;2023-04-02T14:59:22;9.60;56.00
19214;DHT22;9741;51.020;5.304;2023-04-02T15:01:55;9.60;56.10
19214;DHT22;9741;51.020;5.304;2023-04-02T15:04:28;9.60;56.00
19214;DHT22;9741;51.020;5.304;2023-04-02T15:07:02;9.60;55.90
19214;DHT22;9741;51.020;5.304;2023-04-02T15:09:37;9.60;56.00
19214;DHT22;9741;51.020;5.304;2023-04-02T15:12:08;9.60;55.90
19214;DHT22;9741;51.020;5.304;2023-04-02T15:14:44;9.70;56.00
19214;DHT22;9741;51.020;5.304;2023-04-02T15:17:12;9.70;55.90
19214;DHT22;9741;51.020;5.304;2023-04-02T15:19:39;9.80;55.90
19214;DHT22;9741;51.020;5.304;2023-04-02T15:22:31;9.90;55.90
19214;DHT22;9741;51.020;5.304;2023-04-02T15:25:10;10.00;54.80
19214;DHT22;9741;51.020;5.304;2023-04-02T15:27:51;9.90;55.40
19214;DHT22;9741;51.020;5.304;2023-04-02T15:30:24;9.90;55.40
19214;DHT22;9741;51.020;5.304;2023-04-02T15:32:56;10.00;54.60
19214;DHT22;9741;51.020;5.304;2023-04-02T15:35:31;10.00;54.70
19214;DHT22;9741;51.020;5.304;2023-04-02T15:38:09;10.00;54.40
19214;DHT22;9741;51.020;5.304;2023-04-02T15:40:52;10.00;54.30
19214;DHT22;9741;51.020;5.304;2023-04-02T15:43:25;9.90;55.20
19214;DHT22;9741;51.020;5.304;2023-04-02T15:46:11;9.90;55.20
19214;DHT22;9741;51.020;5.304;2023-04-02T15:48:53;9.90;55.00
19214;DHT22;9741;51.020;5.304;2023-04-02T15:51:33;9.80;54.90
19214;DHT22;9741;51.020;5.304;2023-04-02T15:54:40;9.80;54.90
19214;DHT22;9741;51.020;5.304;2023-04-02T15:57:19;9.70;54.70
19214;DHT22;9741;51.020;5.304;2023-04-02T16:00:14;9.60;54.70
19214;DHT22;9741;51.020;5.304;2023-04-02T16:05:50;9.70;55.00
19214;DHT22;9741;51.020;5.304;2023-04-02T16:08:35;9.70;55.10
19214;DHT22;9741;51.020;5.304;2023-04-02T16:11:09;9.80;55.10
19214;DHT22;9741;51.020;5.304;2023-04-02T16:13:39;9.80;55.00
19214;DHT22;9741;51.020;5.304;2023-04-02T16:16:08;9.80;54.90
19214;DHT22;9741;51.020;5.304;2023-04-02T16:18:48;9.80;54.80
19214;DHT22;9741;51.020;5.304;2023-04-02T16:21:20;9.70;54.50
19214;DHT22;9741;51.020;5.304;2023-04-02T16:23:48;9.50;54.20
19214;DHT22;9741;51.020;5.304;2023-04-02T16:26:35;9.40;54.30
19214;DHT22;9741;51.020;5.304;2023-04-02T16:29:32;9.30;54.40
19214;DHT22;9741;51.020;5.304;2023-04-02T16:32:06;9.20;54.50
19214;DHT22;9741;51.020;5.304;2023-04-02T16:34:42;9.00;54.40
19214;DHT22;9741;51.020;5.304;2023-04-02T16:37:19;9.00;54.50
19214;DHT22;9741;51.020;5.304;2023-04-02T16:39:53;8.90;54.50
19214;DHT22;9741;51.020;5.304;2023-04-02T16:42:30;8.90;54.60
19214;DHT22;9741;51.020;5.304;2023-04-02T16:45:12;8.90;54.70
19214;DHT22;9741;51.020;5.304;2023-04-02T16:47:59;8.90;54.70
19214;DHT22;9741;51.020;5.304;2023-04-02T16:50:39;8.90;54.60
19214;DHT22;9741;51.020;5.304;2023-04-02T16:53:18;8.90;54.50
19214;DHT22;9741;51.020;5.304;2023-04-02T16:55:59;8.90;55.00
19214;DHT22;9741;51.020;5.304;2023-04-02T16:58:38;8.90;54.50
19214;DHT22;9741;51.020;5.304;2023-04-02T17:01:17;8.90;54.50
19214;DHT22;9741;51.020;5.304;2023-04-02T17:04:14;8.90;54.50
19214;DHT22;9741;51.020;5.304;2023-04-02T17:06:49;8.90;54.60
19214;DHT22;9741;51.020;5.304;2023-04-02T17:09:27;8.80;54.40
19214;DHT22;9741;51.020;5.304;2023-04-02T17:12:02;8.80;54.30